sensor_id;sensor_type;location;lat;lon;timestamp;P1;durP1;ratioP1;P2;durP2;ratioP2
3543;SDS011;1786;52.870;9.578;2022-12-05T00:03:50;34.00;;;17.13;;
3543;SDS011;1786;52.870;9.578;2022-12-05T00:06:19;34.47;;;19.90;;
3543;SDS011;1786;52.870;9.578;2022-12-05T00:08:47;39.93;;;20.37;;
3543;SDS011;1786;52.870;9.578;2022-12-05T00:11:15;30.37;;;18.50;;
3543;SDS011;1786;52.870;9.578;2022-12-05T00:13:45;30.37;;;19.60;;
3543;SDS011;1786;52.870;9.578;2022-12-05T00:16:14;36.17;;;19.53;;
3543;SDS011;1786;52.870;9.578;2022-12-05T00:18:42;36.57;;;19.60;;
3543;SDS011;1786;52.870;9.578;2022-12-05T00:21:13;34.07;;;19.53;;
3543;SDS011;1786;52.870;9.578;2022-12-05T00:23:42;34.60;;;19.37;;
3543;SDS011;1786;52.870;9.578;2022-12-05T00:26:09;42.30;;;18.83;;
3543;SDS011;1786;52.870;9.578;2022-12-05T00:28:36;38.17;;;20.50;;
3543;SDS011;1786;52.870;9.578;2022-12-05T00:31:05;34.40;;;19.57;;
3543;SDS011;1786;52.870;9.578;2022-12-05T00:33:40;38.93;;;19.27;;
3543;SDS011;1786;52.870;9.578;2022-12-05T00:36:09;36.00;;;19.20;;
3543;SDS011;1786;52.870;9.578;2022-12-05T00:38:37;34.40;;;19.20;;
3543;SDS011;1786;52.870;9.578;2022-12-05T00:41:08;36.03;;;18.90;;
3543;SDS011;1786;52.870;9.578;2022-12-05T00:43:37;31.97;;;17.97;;
3543;SDS011;1786;52.870;9.578;2022-12-05T00:46:06;32.63;;;19.10;;
3543;SDS011;1786;52.870;9.578;2022-12-05T00:48:35;37.73;;;19.37;;
3543;SDS011;1786;52.870;9.578;2022-12-05T00:51:03;31.90;;;18.00;;
3543;SDS011;1786;52.870;9.578;2022-12-05T00:53:35;37.73;;;18.67;;
3543;SDS011;1786;52.870;9.578;2022-12-05T00:56:03;31.93;;;19.37;;
3543;SDS011;1786;52.870;9.578;2022-12-05T00:58:34;39.17;;;19.20;;
3543;SDS011;1786;52.870;9.578;2022-12-05T01:01:04;37.60;;;18.67;;
3543;SDS011;1786;52.870;9.578;2022-12-05T01:03:35;33.40;;;18.77;;
3543;SDS011;1786;52.870;9.578;2022-12-05T01:06:03;34.37;;;20.40;;
3543;SDS011;1786;52.870;9.578;2022-12-05T01:08:32;34.80;;;19.80;;
3543;SDS011;1786;52.870;9.578;2022-12-05T01:10:59;40.77;;;21.07;;
3543;SDS011;1786;52.870;9.578;2022-12-05T01:13:28;36.53;;;18.70;;
3543;SDS011;1786;52.870;9.578;2022-12-05T01:15:55;36.70;;;19.70;;
3543;SDS011;1786;52.870;9.578;2022-12-05T01:18:23;35.63;;;19.23;;
3543;SDS011;1786;52.870;9.578;2022-12-05T01:20:51;40.67;;;21.10;;
3543;SDS011;1786;52.870;9.578;2022-12-05T01:23:18;39.80;;;20.27;;
3543;SDS011;1786;52.870;9.578;2022-12-05T01:25:47;40.33;;;21.00;;
3543;SDS011;1786;52.870;9.578;2022-12-05T01:28:16;39.30;;;20.63;;
3543;SDS011;1786;52.870;9.578;2022-12-05T01:30:45;37.53;;;19.50;;
3543;SDS011;1786;52.870;9.578;2022-12-05T01:33:13;44.43;;;21.00;;
3543;SDS011;1786;52.870;9.578;2022-12-05T01:35:40;35.83;;;20.83;;
3543;SDS011;1786;52.870;9.578;2022-12-05T01:38:09;36.17;;;20.80;;
3543;SDS011;1786;52.870;9.578;2022-12-05T01:40:37;33.13;;;18.50;;
3543;SDS011;1786;52.870;9.578;2022-12-05T01:43:05;41.53;;;21.90;;
3543;SDS011;1786;52.870;9.578;2022-12-05T01:45:40;45.07;;;22.37;;
3543;SDS011;1786;52.870;9.578;2022-12-05T01:48:10;38.43;;;20.80;;
3543;SDS011;1786;52.870;9.578;2022-12-05T01:50:45;48.93;;;16.27;;
3543;SDS011;1786;52.870;9.578;2022-12-05T01:53:13;43.60;;;20.57;;
3543;SDS011;1786;52.870;9.578;2022-12-05T01:55:41;47.40;;;19.90;;
3543;SDS011;1786;52.870;9.578;2022-12-05T01:58:08;33.50;;;17.57;;
3543;SDS011;1786;52.870;9.578;2022-12-05T02:00:39;37.43;;;19.57;;
3543;SDS011;1786;52.870;9.578;2022-12-05T02:03:07;36.23;;;18.53;;
3543;SDS011;1786;52.870;9.578;2022-12-05T02:05:37;40.23;;;19.90;;
3543;SDS011;1786;52.870;9.578;2022-12-05T02:08:06;41.57;;;19.60;;
3543;SDS011;1786;52.870;9.578;2022-12-05T02:10:35;43.30;;;21.90;;
3543;SDS011;1786;52.870;9.578;2022-12-05T02:13:11;41.80;;;20.33;;
3543;SDS011;1786;52.870;9.578;2022-12-05T02:16:03;40.57;;;19.60;;
3543;SDS011;1786;52.870;9.578;2022-12-05T02:18:44;40.93;;;20.77;;
3543;SDS011;1786;52.870;9.578;2022-12-05T02:21:38;39.83;;;20.27;;
3543;SDS011;1786;52.870;9.578;2022-12-05T02:27:10;38.73;;;19.70;;
3543;SDS011;1786;52.870;9.578;2022-12-05T02:40:49;37.17;;;18.43;;
3543;SDS011;1786;52.870;9.578;2022-12-05T02:43:38;39.23;;;20.80;;
3543;SDS011;1786;52.870;9.578;2022-12-05T02:46:08;44.13;;;20.37;;
3543;SDS011;1786;52.870;9.578;2022-12-05T02:48:38;43.17;;;20.33;;
3543;SDS011;1786;52.870;9.578;2022-12-05T02:51:07;30.57;;;17.40;;
3543;SDS011;1786;52.870;9.578;2022-12-05T02:53:37;40.00;;;20.93;;
3543;SDS011;1786;52.870;9.578;2022-12-05T02:56:06;39.03;;;19.03;;
3543;SDS011;1786;52.870;9.578;2022-12-05T02:58:33;40.40;;;20.60;;
3543;SDS011;1786;52.870;9.578;2022-12-05T03:01:04;44.53;;;20.47;;
3543;SDS011;1786;52.870;9.578;2022-12-05T03:03:31;38.03;;;18.80;;
3543;SDS011;1786;52.870;9.578;2022-12-05T03:06:06;47.13;;;20.73;;
3543;SDS011;1786;52.870;9.578;2022-12-05T03:08:47;40.43;;;20.97;;
3543;SDS011;1786;52.870;9.578;2022-12-05T03:11:17;40.63;;;19.87;;
3543;SDS011;1786;52.870;9.578;2022-12-05T03:13:47;37.90;;;19.80;;
3543;SDS011;1786;52.870;9.578;2022-12-05T03:16:30;32.20;;;18.00;;
3543;SDS011;1786;52.870;9.578;2022-12-05T03:19:04;34.03;;;18.97;;
3543;SDS011;1786;52.870;9.578;2022-12-05T03:21:57;40.03;;;19.50;;
3543;SDS011;1786;52.870;9.578;2022-12-05T03:24:27;42.10;;;21.87;;
3543;SDS011;1786;52.870;9.578;2022-12-05T03:26:57;42.43;;;20.10;;
3543;SDS011;1786;52.870;9.578;2022-12-05T03:29:49;33.40;;;19.13;;
3543;SDS011;1786;52.870;9.578;2022-12-05T03:37:53;39.17;;;19.70;;
3543;SDS011;1786;52.870;9.578;2022-12-05T03:41:12;43.40;;;20.03;;
3543;SDS011;1786;52.870;9.578;2022-12-05T03:43:20;38.27;;;17.57;;
3543;SDS011;1786;52.870;9.578;2022-12-05T03:48:27;42.07;;;17.90;;
3543;SDS011;1786;52.870;9.578;2022-12-05T03:51:00;38.33;;;19.10;;
3543;SDS011;1786;52.870;9.578;2022-12-05T03:53:30;41.23;;;19.00;;
3543;SDS011;1786;52.870;9.578;2022-12-05T03:56:04;49.60;;;19.80;;
3543;SDS011;1786;52.870;9.578;2022-12-05T03:58:42;37.27;;;19.57;;
3543;SDS011;1786;52.870;9.578;2022-12-05T04:01:15;39.97;;;20.27;;
3543;SDS011;1786;52.870;9.578;2022-12-05T04:03:51;36.07;;;19.07;;
3543;SDS011;1786;52.870;9.578;2022-12-05T04:06:24;36.67;;;17.50;;
3543;SDS011;1786;52.870;9.578;2022-12-05T04:11:45;36.20;;;18.70;;
3543;SDS011;1786;52.870;9.578;2022-12-05T04:14:17;33.10;;;18.23;;
3543;SDS011;1786;52.870;9.578;2022-12-05T04:16:55;35.23;;;18.60;;
3543;SDS011;1786;52.870;9.578;2022-12-05T04:22:32;37.57;;;19.50;;
3543;SDS011;1786;52.870;9.578;2022-12-05T04:25:00;38.77;;;18.00;;
3543;SDS011;1786;52.870;9.578;2022-12-05T04:27:49;35.10;;;18.10;;
3543;SDS011;1786;52.870;9.578;2022-12-05T04:30:38;38.70;;;19.03;;
3543;SDS011;1786;52.870;9.578;2022-12-05T04:33:15;34.63;;;18.40;;
3543;SDS011;1786;52.870;9.578;2022-12-05T04:35:49;29.23;;;16.93;;
3543;SDS011;1786;52.870;9.578;2022-12-05T04:38:26;35.43;;;18.33;;
3543;SDS011;1786;52.870;9.578;2022-12-05T04:40:59;31.80;;;17.13;;
3543;SDS011;1786;52.870;9.578;2022-12-05T04:43:29;31.50;;;17.00;;
3543;SDS011;1786;52.870;9.578;2022-12-05T04:46:01;31.90;;;16.17;;
3543;SDS011;1786;52.870;9.578;2022-12-05T04:48:31;30.90;;;17.30;;
3543;SDS011;1786;52.870;9.578;2022-12-05T04:51:01;31.30;;;17.43;;
3543;SDS011;1786;52.870;9.578;2022-12-05T04:53:30;34.50;;;18.17;;
3543;SDS011;1786;52.870;9.578;2022-12-05T04:55:57;28.00;;;16.67;;
3543;SDS011;1786;52.870;9.578;2022-12-05T04:58:27;29.83;;;16.00;;
3543;SDS011;1786;52.870;9.578;2022-12-05T05:01:06;25.90;;;15.20;;
3543;SDS011;1786;52.870;9.578;2022-12-05T05:03:39;30.60;;;15.70;;
3543;SDS011;1786;52.870;9.578;2022-12-05T05:06:09;33.07;;;16.53;;
3543;SDS011;1786;52.870;9.578;2022-12-05T05:08:45;26.47;;;16.60;;
3543;SDS011;1786;52.870;9.578;2022-12-05T05:11:26;25.80;;;14.70;;
3543;SDS011;1786;52.870;9.578;2022-12-05T05:13:54;30.47;;;16.20;;
3543;SDS011;1786;52.870;9.578;2022-12-05T05:16:25;29.60;;;15.73;;
3543;SDS011;1786;52.870;9.578;2022-12-05T05:18:54;24.40;;;14.80;;
3543;SDS011;1786;52.870;9.578;2022-12-05T05:21:25;27.33;;;16.07;;
3543;SDS011;1786;52.870;9.578;2022-12-05T05:23:54;32.77;;;15.97;;
3543;SDS011;1786;52.870;9.578;2022-12-05T05:26:21;30.43;;;15.67;;
3543;SDS011;1786;52.870;9.578;2022-12-05T05:28:49;24.97;;;15.77;;
3543;SDS011;1786;52.870;9.578;2022-12-05T05:31:17;25.07;;;15.50;;
3543;SDS011;1786;52.870;9.578;2022-12-05T05:33:52;26.40;;;15.70;;
3543;SDS011;1786;52.870;9.578;2022-12-05T05:36:22;28.23;;;14.93;;
3543;SDS011;1786;52.870;9.578;2022-12-05T05:38:52;31.53;;;15.40;;
3543;SDS011;1786;52.870;9.578;2022-12-05T05:43:48;28.90;;;14.80;;
3543;SDS011;1786;52.870;9.578;2022-12-05T05:46:17;23.53;;;14.77;;
3543;SDS011;1786;52.870;9.578;2022-12-05T05:48:45;24.83;;;14.50;;
3543;SDS011;1786;52.870;9.578;2022-12-05T05:51:13;20.60;;;13.60;;
3543;SDS011;1786;52.870;9.578;2022-12-05T05:53:42;23.67;;;14.47;;
3543;SDS011;1786;52.870;9.578;2022-12-05T05:56:11;22.90;;;14.90;;
3543;SDS011;1786;52.870;9.578;2022-12-05T05:58:46;25.20;;;14.47;;
3543;SDS011;1786;52.870;9.578;2022-12-05T06:01:21;27.17;;;15.40;;
3543;SDS011;1786;52.870;9.578;2022-12-05T06:03:47;20.10;;;12.87;;
3543;SDS011;1786;52.870;9.578;2022-12-05T06:06:16;23.13;;;13.60;;
3543;SDS011;1786;52.870;9.578;2022-12-05T06:08:44;20.77;;;13.30;;
3543;SDS011;1786;52.870;9.578;2022-12-05T06:11:12;21.17;;;13.40;;
3543;SDS011;1786;52.870;9.578;2022-12-05T06:13:50;20.70;;;12.33;;
3543;SDS011;1786;52.870;9.578;2022-12-05T06:16:18;22.03;;;13.43;;
3543;SDS011;1786;52.870;9.578;2022-12-05T06:18:44;17.77;;;13.60;;
3543;SDS011;1786;52.870;9.578;2022-12-05T06:21:11;23.10;;;13.53;;
3543;SDS011;1786;52.870;9.578;2022-12-05T06:23:41;24.93;;;15.30;;
3543;SDS011;1786;52.870;9.578;2022-12-05T06:26:09;20.63;;;12.07;;
3543;SDS011;1786;52.870;9.578;2022-12-05T06:28:37;18.87;;;12.57;;
3543;SDS011;1786;52.870;9.578;2022-12-05T06:31:08;18.70;;;12.40;;
3543;SDS011;1786;52.870;9.578;2022-12-05T06:33:38;23.30;;;13.87;;
3543;SDS011;1786;52.870;9.578;2022-12-05T06:36:06;20.07;;;12.00;;
3543;SDS011;1786;52.870;9.578;2022-12-05T06:38:37;19.17;;;12.80;;
3543;SDS011;1786;52.870;9.578;2022-12-05T06:41:08;33.10;;;17.87;;
3543;SDS011;1786;52.870;9.578;2022-12-05T06:43:45;21.40;;;12.97;;
3543;SDS011;1786;52.870;9.578;2022-12-05T06:46:13;24.93;;;14.63;;
3543;SDS011;1786;52.870;9.578;2022-12-05T06:48:41;17.93;;;12.60;;
3543;SDS011;1786;52.870;9.578;2022-12-05T06:51:08;26.20;;;13.10;;
3543;SDS011;1786;52.870;9.578;2022-12-05T06:53:36;19.97;;;13.33;;
3543;SDS011;1786;52.870;9.578;2022-12-05T06:56:04;22.33;;;12.20;;
3543;SDS011;1786;52.870;9.578;2022-12-05T06:58:33;18.17;;;12.27;;
3543;SDS011;1786;52.870;9.578;2022-12-05T07:01:00;24.07;;;15.93;;
3543;SDS011;1786;52.870;9.578;2022-12-05T07:03:48;17.07;;;11.20;;
3543;SDS011;1786;52.870;9.578;2022-12-05T07:06:16;21.10;;;14.00;;
3543;SDS011;1786;52.870;9.578;2022-12-05T07:08:42;20.50;;;13.83;;
3543;SDS011;1786;52.870;9.578;2022-12-05T07:11:10;19.03;;;12.63;;
3543;SDS011;1786;52.870;9.578;2022-12-05T07:13:37;19.90;;;12.40;;
3543;SDS011;1786;52.870;9.578;2022-12-05T07:16:04;20.90;;;12.10;;
3543;SDS011;1786;52.870;9.578;2022-12-05T07:18:33;17.40;;;11.07;;
3543;SDS011;1786;52.870;9.578;2022-12-05T07:21:05;18.40;;;10.90;;
3543;SDS011;1786;52.870;9.578;2022-12-05T07:23:39;15.97;;;10.37;;
3543;SDS011;1786;52.870;9.578;2022-12-05T07:26:08;21.50;;;11.63;;
3543;SDS011;1786;52.870;9.578;2022-12-05T07:28:37;17.77;;;11.63;;
3543;SDS011;1786;52.870;9.578;2022-12-05T07:31:04;20.13;;;12.63;;
3543;SDS011;1786;52.870;9.578;2022-12-05T07:33:35;15.63;;;10.37;;
3543;SDS011;1786;52.870;9.578;2022-12-05T07:36:07;19.23;;;11.07;;
3543;SDS011;1786;52.870;9.578;2022-12-05T07:38:36;18.10;;;12.47;;
3543;SDS011;1786;52.870;9.578;2022-12-05T07:41:07;14.60;;;10.30;;
3543;SDS011;1786;52.870;9.578;2022-12-05T07:43:39;15.83;;;10.50;;
3543;SDS011;1786;52.870;9.578;2022-12-05T07:46:07;18.03;;;11.63;;
3543;SDS011;1786;52.870;9.578;2022-12-05T07:48:37;15.70;;;10.40;;
3543;SDS011;1786;52.870;9.578;2022-12-05T07:51:05;14.13;;;10.30;;
3543;SDS011;1786;52.870;9.578;2022-12-05T07:53:33;14.67;;;10.50;;
3543;SDS011;1786;52.870;9.578;2022-12-05T07:56:00;16.00;;;10.27;;
3543;SDS011;1786;52.870;9.578;2022-12-05T07:58:30;17.57;;;11.10;;
3543;SDS011;1786;52.870;9.578;2022-12-05T08:01:04;16.73;;;11.20;;
3543;SDS011;1786;52.870;9.578;2022-12-05T08:03:39;16.00;;;10.47;;
3543;SDS011;1786;52.870;9.578;2022-12-05T08:06:08;15.90;;;11.03;;
3543;SDS011;1786;52.870;9.578;2022-12-05T08:08:37;13.10;;;9.80;;
3543;SDS011;1786;52.870;9.578;2022-12-05T08:11:05;17.43;;;10.60;;
3543;SDS011;1786;52.870;9.578;2022-12-05T08:13:37;15.47;;;10.30;;
3543;SDS011;1786;52.870;9.578;2022-12-05T08:16:05;17.27;;;11.03;;
3543;SDS011;1786;52.870;9.578;2022-12-05T08:18:33;17.53;;;10.53;;
3543;SDS011;1786;52.870;9.578;2022-12-05T08:21:01;20.90;;;13.60;;
3543;SDS011;1786;52.870;9.578;2022-12-05T08:23:29;14.83;;;11.03;;
3543;SDS011;1786;52.870;9.578;2022-12-05T08:26:01;17.70;;;11.60;;
3543;SDS011;1786;52.870;9.578;2022-12-05T08:28:30;16.60;;;10.53;;
3543;SDS011;1786;52.870;9.578;2022-12-05T08:31:07;15.20;;;10.43;;
3543;SDS011;1786;52.870;9.578;2022-12-05T08:33:36;14.83;;;10.40;;
3543;SDS011;1786;52.870;9.578;2022-12-05T08:36:05;17.20;;;11.07;;
3543;SDS011;1786;52.870;9.578;2022-12-05T08:38:36;16.63;;;11.33;;
3543;SDS011;1786;52.870;9.578;2022-12-05T08:41:03;20.30;;;11.17;;
3543;SDS011;1786;52.870;9.578;2022-12-05T08:43:31;18.57;;;11.50;;
3543;SDS011;1786;52.870;9.578;2022-12-05T08:45:59;18.13;;;12.67;;
3543;SDS011;1786;52.870;9.578;2022-12-05T08:48:27;17.57;;;11.00;;
3543;SDS011;1786;52.870;9.578;2022-12-05T08:50:56;13.93;;;10.77;;
3543;SDS011;1786;52.870;9.578;2022-12-05T08:53:23;15.37;;;10.70;;
3543;SDS011;1786;52.870;9.578;2022-12-05T08:55:50;16.37;;;11.40;;
3543;SDS011;1786;52.870;9.578;2022-12-05T08:58:17;16.20;;;10.90;;
3543;SDS011;1786;52.870;9.578;2022-12-05T09:00:43;19.63;;;11.70;;
3543;SDS011;1786;52.870;9.578;2022-12-05T09:03:10;17.43;;;10.33;;
3543;SDS011;1786;52.870;9.578;2022-12-05T09:05:38;14.03;;;10.83;;
3543;SDS011;1786;52.870;9.578;2022-12-05T09:08:04;18.47;;;11.80;;
3543;SDS011;1786;52.870;9.578;2022-12-05T09:10:31;18.20;;;10.77;;
3543;SDS011;1786;52.870;9.578;2022-12-05T09:12:59;19.63;;;10.30;;
3543;SDS011;1786;52.870;9.578;2022-12-05T09:15:25;15.00;;;9.93;;
3543;SDS011;1786;52.870;9.578;2022-12-05T09:17:53;16.37;;;11.10;;
3543;SDS011;1786;52.870;9.578;2022-12-05T09:20:20;19.47;;;11.43;;
3543;SDS011;1786;52.870;9.578;2022-12-05T09:22:47;15.50;;;9.80;;
3543;SDS011;1786;52.870;9.578;2022-12-05T09:25:13;16.57;;;11.27;;
3543;SDS011;1786;52.870;9.578;2022-12-05T09:27:40;18.70;;;12.70;;
3543;SDS011;1786;52.870;9.578;2022-12-05T09:30:07;13.33;;;9.90;;
3543;SDS011;1786;52.870;9.578;2022-12-05T09:32:36;17.10;;;11.20;;
3543;SDS011;1786;52.870;9.578;2022-12-05T09:35:02;19.40;;;12.27;;
3543;SDS011;1786;52.870;9.578;2022-12-05T09:37:29;17.17;;;12.23;;
3543;SDS011;1786;52.870;9.578;2022-12-05T09:40:05;13.87;;;10.23;;
3543;SDS011;1786;52.870;9.578;2022-12-05T09:42:53;18.33;;;11.10;;
3543;SDS011;1786;52.870;9.578;2022-12-05T09:45:36;18.03;;;11.53;;
3543;SDS011;1786;52.870;9.578;2022-12-05T09:48:12;16.57;;;11.43;;
3543;SDS011;1786;52.870;9.578;2022-12-05T09:53:38;16.97;;;11.33;;
3543;SDS011;1786;52.870;9.578;2022-12-05T10:03:42;17.27;;;10.23;;
3543;SDS011;1786;52.870;9.578;2022-12-05T10:08:55;18.60;;;11.40;;
3543;SDS011;1786;52.870;9.578;2022-12-05T10:11:44;17.10;;;10.23;;
3543;SDS011;1786;52.870;9.578;2022-12-05T10:17:10;18.73;;;11.57;;
3543;SDS011;1786;52.870;9.578;2022-12-05T10:19:46;22.50;;;14.43;;
3543;SDS011;1786;52.870;9.578;2022-12-05T10:22:18;17.30;;;10.77;;
3543;SDS011;1786;52.870;9.578;2022-12-05T10:24:52;18.07;;;11.27;;
3543;SDS011;1786;52.870;9.578;2022-12-05T10:27:27;22.10;;;12.63;;
3543;SDS011;1786;52.870;9.578;2022-12-05T10:30:11;15.43;;;10.10;;
3543;SDS011;1786;52.870;9.578;2022-12-05T10:32:59;12.93;;;9.50;;
3543;SDS011;1786;52.870;9.578;2022-12-05T10:35:35;15.33;;;10.50;;
3543;SDS011;1786;52.870;9.578;2022-12-05T10:40:33;18.30;;;10.60;;
3543;SDS011;1786;52.870;9.578;2022-12-05T10:43:05;18.37;;;10.13;;
3543;SDS011;1786;52.870;9.578;2022-12-05T10:45:39;16.17;;;10.40;;
3543;SDS011;1786;52.870;9.578;2022-12-05T10:48:13;15.03;;;11.00;;
3543;SDS011;1786;52.870;9.578;2022-12-05T10:50:43;14.37;;;10.00;;
3543;SDS011;1786;52.870;9.578;2022-12-05T10:53:18;16.93;;;10.43;;
3543;SDS011;1786;52.870;9.578;2022-12-05T10:55:49;16.50;;;10.77;;
3543;SDS011;1786;52.870;9.578;2022-12-05T10:58:37;18.20;;;10.50;;
3543;SDS011;1786;52.870;9.578;2022-12-05T11:01:06;23.07;;;14.80;;
3543;SDS011;1786;52.870;9.578;2022-12-05T11:03:36;21.97;;;13.70;;
3543;SDS011;1786;52.870;9.578;2022-12-05T11:06:15;17.03;;;10.13;;
3543;SDS011;1786;52.870;9.578;2022-12-05T11:08:50;18.50;;;10.20;;
3543;SDS011;1786;52.870;9.578;2022-12-05T11:11:31;18.10;;;10.50;;
3543;SDS011;1786;52.870;9.578;2022-12-05T11:16:28;25.70;;;15.60;;
3543;SDS011;1786;52.870;9.578;2022-12-05T11:19:45;21.30;;;11.03;;
3543;SDS011;1786;52.870;9.578;2022-12-05T11:21:47;16.40;;;10.93;;
3543;SDS011;1786;52.870;9.578;2022-12-05T11:24:19;25.20;;;15.97;;
3543;SDS011;1786;52.870;9.578;2022-12-05T11:26:46;20.17;;;11.77;;
3543;SDS011;1786;52.870;9.578;2022-12-05T11:32:01;20.10;;;12.73;;
3543;SDS011;1786;52.870;9.578;2022-12-05T11:34:40;24.10;;;12.03;;
3543;SDS011;1786;52.870;9.578;2022-12-05T11:37:51;27.60;;;17.17;;
3543;SDS011;1786;52.870;9.578;2022-12-05T11:49:02;60.37;;;29.03;;
3543;SDS011;1786;52.870;9.578;2022-12-05T11:51:48;20.70;;;11.77;;
3543;SDS011;1786;52.870;9.578;2022-12-05T11:57:46;21.17;;;13.20;;
3543;SDS011;1786;52.870;9.578;2022-12-05T12:03:10;35.67;;;20.30;;
3543;SDS011;1786;52.870;9.578;2022-12-05T12:08:27;18.47;;;10.53;;
3543;SDS011;1786;52.870;9.578;2022-12-05T12:16:48;15.97;;;10.57;;
3543;SDS011;1786;52.870;9.578;2022-12-05T12:37:22;13.37;;;9.90;;
3543;SDS011;1786;52.870;9.578;2022-12-05T12:39:47;19.90;;;10.20;;
3543;SDS011;1786;52.870;9.578;2022-12-05T12:42:19;15.80;;;8.83;;
3543;SDS011;1786;52.870;9.578;2022-12-05T12:44:57;19.53;;;10.00;;
3543;SDS011;1786;52.870;9.578;2022-12-05T12:47:35;16.27;;;10.33;;
3543;SDS011;1786;52.870;9.578;2022-12-05T12:50:27;14.80;;;10.10;;
3543;SDS011;1786;52.870;9.578;2022-12-05T12:58:46;16.47;;;9.70;;
3543;SDS011;1786;52.870;9.578;2022-12-05T13:01:32;12.57;;;8.83;;
3543;SDS011;1786;52.870;9.578;2022-12-05T13:04:09;14.90;;;8.90;;
3543;SDS011;1786;52.870;9.578;2022-12-05T13:06:57;14.03;;;7.63;;
3543;SDS011;1786;52.870;9.578;2022-12-05T13:09:41;11.13;;;8.20;;
3543;SDS011;1786;52.870;9.578;2022-12-05T13:12:20;13.10;;;8.10;;
3543;SDS011;1786;52.870;9.578;2022-12-05T13:14:54;13.57;;;8.50;;
3543;SDS011;1786;52.870;9.578;2022-12-05T13:17:26;10.83;;;7.40;;
3543;SDS011;1786;52.870;9.578;2022-12-05T13:19:57;10.77;;;7.83;;
3543;SDS011;1786;52.870;9.578;2022-12-05T13:22:25;15.97;;;7.50;;
3543;SDS011;1786;52.870;9.578;2022-12-05T13:24:53;14.00;;;8.03;;
3543;SDS011;1786;52.870;9.578;2022-12-05T13:27:22;15.50;;;7.63;;
3543;SDS011;1786;52.870;9.578;2022-12-05T13:29:54;9.97;;;6.63;;
3543;SDS011;1786;52.870;9.578;2022-12-05T13:32:35;7.77;;;6.80;;
3543;SDS011;1786;52.870;9.578;2022-12-05T13:37:32;8.60;;;6.20;;
3543;SDS011;1786;52.870;9.578;2022-12-05T13:43:24;7.53;;;6.80;;
3543;SDS011;1786;52.870;9.578;2022-12-05T13:46:01;9.27;;;7.10;;
3543;SDS011;1786;52.870;9.578;2022-12-05T13:48:34;8.00;;;6.87;;
3543;SDS011;1786;52.870;9.578;2022-12-05T13:51:26;11.30;;;7.73;;
3543;SDS011;1786;52.870;9.578;2022-12-05T13:54:02;9.43;;;6.70;;
3543;SDS011;1786;52.870;9.578;2022-12-05T14:07:50;8.20;;;6.10;;
3543;SDS011;1786;52.870;9.578;2022-12-05T14:12:55;10.20;;;6.73;;
3543;SDS011;1786;52.870;9.578;2022-12-05T14:15:45;10.57;;;7.00;;
3543;SDS011;1786;52.870;9.578;2022-12-05T14:21:12;9.47;;;6.57;;
3543;SDS011;1786;52.870;9.578;2022-12-05T14:29:27;8.23;;;6.67;;
3543;SDS011;1786;52.870;9.578;2022-12-05T14:32:02;7.10;;;5.90;;
3543;SDS011;1786;52.870;9.578;2022-12-05T14:37:34;8.80;;;6.87;;
3543;SDS011;1786;52.870;9.578;2022-12-05T14:40:15;11.60;;;6.97;;
3543;SDS011;1786;52.870;9.578;2022-12-05T14:42:49;11.93;;;6.90;;
3543;SDS011;1786;52.870;9.578;2022-12-05T14:45:52;9.77;;;6.83;;
3543;SDS011;1786;52.870;9.578;2022-12-05T14:48:35;8.87;;;6.70;;
3543;SDS011;1786;52.870;9.578;2022-12-05T14:54:32;9.63;;;6.53;;
3543;SDS011;1786;52.870;9.578;2022-12-05T14:56:59;10.30;;;6.93;;
3543;SDS011;1786;52.870;9.578;2022-12-05T14:59:50;12.07;;;7.77;;
3543;SDS011;1786;52.870;9.578;2022-12-05T15:02:23;11.83;;;8.23;;
3543;SDS011;1786;52.870;9.578;2022-12-05T15:04:55;11.07;;;7.27;;
3543;SDS011;1786;52.870;9.578;2022-12-05T15:07:30;6.57;;;5.87;;
3543;SDS011;1786;52.870;9.578;2022-12-05T15:10:05;7.57;;;6.20;;
3543;SDS011;1786;52.870;9.578;2022-12-05T15:12:57;7.73;;;5.50;;
3543;SDS011;1786;52.870;9.578;2022-12-05T15:18:13;7.23;;;5.87;;
3543;SDS011;1786;52.870;9.578;2022-12-05T15:20:51;9.90;;;7.13;;
3543;SDS011;1786;52.870;9.578;2022-12-05T15:23:45;10.97;;;7.30;;
3543;SDS011;1786;52.870;9.578;2022-12-05T15:31:52;17.00;;;12.10;;
3543;SDS011;1786;52.870;9.578;2022-12-05T15:39:52;10.20;;;8.00;;
3543;SDS011;1786;52.870;9.578;2022-12-05T15:42:40;7.30;;;6.40;;
3543;SDS011;1786;52.870;9.578;2022-12-05T15:48:21;7.07;;;6.03;;
3543;SDS011;1786;52.870;9.578;2022-12-05T15:50:37;8.90;;;7.10;;
3543;SDS011;1786;52.870;9.578;2022-12-05T15:53:19;5.63;;;5.13;;
3543;SDS011;1786;52.870;9.578;2022-12-05T15:56:02;6.47;;;4.90;;
3543;SDS011;1786;52.870;9.578;2022-12-05T16:03:52;6.20;;;4.90;;
3543;SDS011;1786;52.870;9.578;2022-12-05T16:06:29;7.13;;;4.90;;
3543;SDS011;1786;52.870;9.578;2022-12-05T16:08:58;5.80;;;5.30;;
3543;SDS011;1786;52.870;9.578;2022-12-05T16:11:36;5.30;;;4.80;;
3543;SDS011;1786;52.870;9.578;2022-12-05T16:14:04;10.70;;;5.70;;
3543;SDS011;1786;52.870;9.578;2022-12-05T16:16:33;6.73;;;5.33;;
3543;SDS011;1786;52.870;9.578;2022-12-05T16:19:03;6.17;;;5.57;;
3543;SDS011;1786;52.870;9.578;2022-12-05T16:21:42;5.47;;;4.97;;
3543;SDS011;1786;52.870;9.578;2022-12-05T16:24:14;5.57;;;5.03;;
3543;SDS011;1786;52.870;9.578;2022-12-05T16:26:51;5.93;;;5.07;;
3543;SDS011;1786;52.870;9.578;2022-12-05T16:29:24;9.30;;;8.50;;
3543;SDS011;1786;52.870;9.578;2022-12-05T16:31:54;6.10;;;5.57;;
3543;SDS011;1786;52.870;9.578;2022-12-05T16:34:23;6.27;;;5.70;;
3543;SDS011;1786;52.870;9.578;2022-12-05T16:36:51;6.27;;;5.67;;
3543;SDS011;1786;52.870;9.578;2022-12-05T16:39:21;6.33;;;5.50;;
3543;SDS011;1786;52.870;9.578;2022-12-05T16:41:48;5.13;;;4.73;;
3543;SDS011;1786;52.870;9.578;2022-12-05T16:44:59;5.93;;;5.37;;
3543;SDS011;1786;52.870;9.578;2022-12-05T16:47:24;6.93;;;5.50;;
3543;SDS011;1786;52.870;9.578;2022-12-05T16:50:22;5.33;;;4.30;;
3543;SDS011;1786;52.870;9.578;2022-12-05T16:53:02;5.43;;;5.03;;
3543;SDS011;1786;52.870;9.578;2022-12-05T16:55:37;4.87;;;4.33;;
3543;SDS011;1786;52.870;9.578;2022-12-05T16:58:07;6.53;;;5.43;;
3543;SDS011;1786;52.870;9.578;2022-12-05T17:00:36;5.60;;;4.87;;
3543;SDS011;1786;52.870;9.578;2022-12-05T17:03:03;7.80;;;5.00;;
3543;SDS011;1786;52.870;9.578;2022-12-05T17:05:51;5.47;;;4.90;;
3543;SDS011;1786;52.870;9.578;2022-12-05T17:08:18;5.87;;;5.27;;
3543;SDS011;1786;52.870;9.578;2022-12-05T17:10:45;5.43;;;4.50;;
3543;SDS011;1786;52.870;9.578;2022-12-05T17:13:12;5.50;;;4.90;;
3543;SDS011;1786;52.870;9.578;2022-12-05T17:15:40;4.10;;;3.70;;
3543;SDS011;1786;52.870;9.578;2022-12-05T17:18:15;4.83;;;4.40;;
3543;SDS011;1786;52.870;9.578;2022-12-05T17:20:47;4.70;;;4.30;;
3543;SDS011;1786;52.870;9.578;2022-12-05T17:23:16;7.67;;;6.30;;
3543;SDS011;1786;52.870;9.578;2022-12-05T17:25:51;7.90;;;6.80;;
3543;SDS011;1786;52.870;9.578;2022-12-05T17:28:20;21.87;;;13.73;;
3543;SDS011;1786;52.870;9.578;2022-12-05T17:30:47;15.30;;;8.87;;
3543;SDS011;1786;52.870;9.578;2022-12-05T17:33:15;6.23;;;5.20;;
3543;SDS011;1786;52.870;9.578;2022-12-05T17:35:43;14.30;;;8.47;;
3543;SDS011;1786;52.870;9.578;2022-12-05T17:38:10;7.80;;;6.20;;
3543;SDS011;1786;52.870;9.578;2022-12-05T17:40:37;4.80;;;4.40;;
3543;SDS011;1786;52.870;9.578;2022-12-05T17:43:05;5.73;;;5.13;;
3543;SDS011;1786;52.870;9.578;2022-12-05T17:45:32;6.73;;;6.13;;
3543;SDS011;1786;52.870;9.578;2022-12-05T17:47:59;6.90;;;6.20;;
3543;SDS011;1786;52.870;9.578;2022-12-05T17:50:26;5.80;;;5.30;;
3543;SDS011;1786;52.870;9.578;2022-12-05T17:52:54;7.20;;;6.33;;
3543;SDS011;1786;52.870;9.578;2022-12-05T17:55:28;6.13;;;5.43;;
3543;SDS011;1786;52.870;9.578;2022-12-05T17:57:55;5.83;;;5.20;;
3543;SDS011;1786;52.870;9.578;2022-12-05T18:00:22;5.97;;;5.47;;
3543;SDS011;1786;52.870;9.578;2022-12-05T18:02:50;6.60;;;5.53;;
3543;SDS011;1786;52.870;9.578;2022-12-05T18:05:18;6.23;;;5.47;;
3543;SDS011;1786;52.870;9.578;2022-12-05T18:07:45;6.50;;;5.23;;